College Park, MD (20740)

8:23 AM EST on February 07, 2016 (GMT -0500)
Hollywood | | Change Station
CLOSE
Current Station
Personal Weather Station
Location: College Park, MD
Elevation: 105 ft
Nearby Weather Stations

Elev 105 ft 39.01 °N, 76.92 °W | Updated 1 second ago

Clear
Clear
25.6 °F
Feels Like 26 °F
N
0.0
Wind Variable Wind from South
Gusts 0.0 mph

Today
High -- | Low -- °F
--% Chance of Precip.
Yesterday
High -- | Low -- °F
Precip. -- in
Pressure 30.20 in
Visibility 10.0 miles
Clouds Clear
Windchill 26 °F
Dew Point 24 °F
Humidity 92%
Rainfall 0.00 in
Snow Depth Not available.
7:08 AM 5:35 PM
Waning Crescent, 2% visible
METAR KCGS 071305Z AUTO 00000KT 10SM CLR M02/M03 A3020 RMK AO1
Pressure 30.20 in
Visibility 10.0 miles
Clouds Clear
Windchill 26 °F
Dew Point 24 °F
Humidity 92%
Rainfall 0.00 in
Snow Depth Not available.
7:08 AM 5:35 PM
Waning Crescent, 2% visible
METAR KCGS 071305Z AUTO 00000KT 10SM CLR M02/M03 A3020 RMK AO1

10-Day Weather Forecast

Almanac

Astronomy

Feb. 07, 2016 Rise Set
Actual Time
Civil Twilight
Nautical Twilight
Astronomical Twilight
Moon
Length of Visible Light
Length of Day
Tomorrow will be .
, % of the Moon is Illuminated

Today's Extremes

State Highs State Lows

Community

WunderPhotos

Upload Photos

1,891,190 photos uploaded!

WunderBlog® & News

Nearby

Air Quality

  Air Quality AQ Index Pollutant
Not available.

Snow Depth

Station Depth Elevation

Earthquake Activity

City Distance Mag. Time & Date
Minimum magnitude displayed is 2.5.

Coastal Water Temperatures

Place Temperature

Stations

Nearby Weather Stations

Station Location Temp. Windchill Dew Point Humidity Wind Precip. Elev Updated Type
                   

Watches & Warnings

There are currently no watches in effect.